sensor_id;sensor_type;location;lat;lon;timestamp;pressure;altitude;pressure_sealevel;temperature;humidity
59654;BME280;45496;52.010;5.418;2022-07-06T00:00:28;102542.0;;;29.48;27.49
59654;BME280;45496;52.010;5.418;2022-07-06T00:02:14;102542.0;;;29.78;27.19
59654;BME280;45496;52.010;5.418;2022-07-06T00:04:02;102545.0;;;29.9;27.03
59654;BME280;45496;52.010;5.418;2022-07-06T00:05:49;102543.0;;;30.04;26.75
59654;BME280;45496;52.010;5.418;2022-07-06T00:09:21;102542.0;;;29.48;27.42
59654;BME280;45496;52.010;5.418;2022-07-06T00:11:07;102539.00000000001;;;29.59;27.49
59654;BME280;45496;52.010;5.418;2022-07-06T00:12:53;102540.00000000001;;;29.54;27.44
59654;BME280;45496;52.010;5.418;2022-07-06T00:14:40;102544.0;;;29.52;27.62
59654;BME280;45496;52.010;5.418;2022-07-06T00:16:27;102541.00000000001;;;29.67;27.54
59654;BME280;45496;52.010;5.418;2022-07-06T00:18:14;102542.0;;;29.79;27.35
59654;BME280;45496;52.010;5.418;2022-07-06T00:21:46;102543.0;;;29.9;27.09
59654;BME280;45496;52.010;5.418;2022-07-06T00:23:33;102544.0;;;30.07;26.86
59654;BME280;45496;52.010;5.418;2022-07-06T00:25:20;102545.0;;;30.15;26.81
59654;BME280;45496;52.010;5.418;2022-07-06T00:27:06;102545.0;;;30.07;26.84
59654;BME280;45496;52.010;5.418;2022-07-06T00:28:53;102541.00000000001;;;30.22;26.68
59654;BME280;45496;52.010;5.418;2022-07-06T00:32:28;102543.0;;;30.1;26.84
59654;BME280;45496;52.010;5.418;2022-07-06T00:34:15;102539.00000000001;;;30.18;26.65
59654;BME280;45496;52.010;5.418;2022-07-06T00:36:01;102533.99999999999;;;29.8;27.12
59654;BME280;45496;52.010;5.418;2022-07-06T00:37:48;102533.0;;;30.02;26.97
59654;BME280;45496;52.010;5.418;2022-07-06T00:39:34;102534.99999999999;;;29.93;27.11
59654;BME280;45496;52.010;5.418;2022-07-06T00:41:20;102534.99999999999;;;30.02;26.8
59654;BME280;45496;52.010;5.418;2022-07-06T00:44:54;102536.99999999999;;;30.22;26.51
59654;BME280;45496;52.010;5.418;2022-07-06T00:46:40;102542.0;;;30.17;26.45
59654;BME280;45496;52.010;5.418;2022-07-06T00:48:26;102533.0;;;29.01;27.92
59654;BME280;45496;52.010;5.418;2022-07-06T00:50:18;102531.0;;;28.72;28.51
59654;BME280;45496;52.010;5.418;2022-07-06T00:52:06;102529.0;;;28.87;28.38
59654;BME280;45496;52.010;5.418;2022-07-06T00:53:54;102532.0;;;29.13;27.95
59654;BME280;45496;52.010;5.418;2022-07-06T00:57:31;102536.99999999999;;;29.17;27.79
59654;BME280;45496;52.010;5.418;2022-07-06T00:59:17;102539.00000000001;;;29.54;27.24
59654;BME280;45496;52.010;5.418;2022-07-06T01:01:04;102533.0;;;29.5;27.41
59654;BME280;45496;52.010;5.418;2022-07-06T01:02:51;102533.99999999999;;;29.75;27.06
59654;BME280;45496;52.010;5.418;2022-07-06T01:04:39;102534.99999999999;;;29.84;26.71
59654;BME280;45496;52.010;5.418;2022-07-06T01:06:25;102538.00000000001;;;29.79;26.59
59654;BME280;45496;52.010;5.418;2022-07-06T01:10:00;102541.00000000001;;;29.89;26.51
59654;BME280;45496;52.010;5.418;2022-07-06T01:11:48;102540.00000000001;;;29.63;26.69
59654;BME280;45496;52.010;5.418;2022-07-06T01:13:34;102533.99999999999;;;29.51;26.9
59654;BME280;45496;52.010;5.418;2022-07-06T01:15:23;102540.00000000001;;;29.35;27.26
59654;BME280;45496;52.010;5.418;2022-07-06T01:17:12;102543.0;;;29.1;27.66
59654;BME280;45496;52.010;5.418;2022-07-06T01:18:59;102547.0;;;29.01;27.89
59654;BME280;45496;52.010;5.418;2022-07-06T01:22:31;102543.0;;;29.09;27.68
59654;BME280;45496;52.010;5.418;2022-07-06T01:24:18;102541.00000000001;;;29.59;27.22
59654;BME280;45496;52.010;5.418;2022-07-06T01:26:04;102542.0;;;29.75;26.8
59654;BME280;45496;52.010;5.418;2022-07-06T01:27:50;102542.0;;;29.72;26.74
59654;BME280;45496;52.010;5.418;2022-07-06T01:29:36;102541.00000000001;;;29.91;26.71
59654;BME280;45496;52.010;5.418;2022-07-06T01:33:11;102536.99999999999;;;30.08;26.55
59654;BME280;45496;52.010;5.418;2022-07-06T01:34:58;102541.00000000001;;;30.26;26.44
59654;BME280;45496;52.010;5.418;2022-07-06T01:36:45;102542.0;;;30.2;26.64
59654;BME280;45496;52.010;5.418;2022-07-06T01:38:32;102538.00000000001;;;30.3;26.54
59654;BME280;45496;52.010;5.418;2022-07-06T01:40:29;102538.00000000001;;;30.51;26.2
59654;BME280;45496;52.010;5.418;2022-07-06T01:42:18;102539.00000000001;;;30.13;26.67
59654;BME280;45496;52.010;5.418;2022-07-06T01:44:04;102533.0;;;30.64;26.07
59654;BME280;45496;52.010;5.418;2022-07-06T01:47:38;102533.99999999999;;;30.77;25.69
59654;BME280;45496;52.010;5.418;2022-07-06T01:49:24;102536.99999999999;;;31.07;25.59
59654;BME280;45496;52.010;5.418;2022-07-06T01:51:12;102536.99999999999;;;31.0;25.7
59654;BME280;45496;52.010;5.418;2022-07-06T01:52:59;102534.99999999999;;;31.48;25.1
59654;BME280;45496;52.010;5.418;2022-07-06T01:54:46;102533.99999999999;;;31.69;24.92
59654;BME280;45496;52.010;5.418;2022-07-06T01:58:18;102529.0;;;30.84;25.83
59654;BME280;45496;52.010;5.418;2022-07-06T02:00:06;102526.0;;;30.58;26.06
59654;BME280;45496;52.010;5.418;2022-07-06T02:01:55;102523.0;;;30.53;26.19
59654;BME280;45496;52.010;5.418;2022-07-06T02:03:41;102527.0;;;30.6;26.13
59654;BME280;45496;52.010;5.418;2022-07-06T02:05:28;102527.0;;;30.04;27.04
59654;BME280;45496;52.010;5.418;2022-07-06T02:07:14;102525.0;;;30.01;27.2
59654;BME280;45496;52.010;5.418;2022-07-06T02:10:48;102528.0;;;29.94;27.1
59654;BME280;45496;52.010;5.418;2022-07-06T02:12:34;102530.0;;;29.0;27.56
59654;BME280;45496;52.010;5.418;2022-07-06T02:14:20;102530.0;;;28.64;27.71
59654;BME280;45496;52.010;5.418;2022-07-06T02:16:06;102530.0;;;28.34;28.0
59654;BME280;45496;52.010;5.418;2022-07-06T02:17:53;102527.0;;;28.13;28.26
59654;BME280;45496;52.010;5.418;2022-07-06T02:23:12;102525.0;;;28.95;27.3
59654;BME280;45496;52.010;5.418;2022-07-06T02:24:59;102527.0;;;28.8;27.24
59654;BME280;45496;52.010;5.418;2022-07-06T02:26:46;102525.0;;;28.64;27.58
59654;BME280;45496;52.010;5.418;2022-07-06T02:28:33;102524.0;;;28.35;27.8
59654;BME280;45496;52.010;5.418;2022-07-06T02:30:21;102527.0;;;28.29;27.88
59654;BME280;45496;52.010;5.418;2022-07-06T02:32:07;102528.0;;;28.12;28.03
59654;BME280;45496;52.010;5.418;2022-07-06T02:35:43;102530.0;;;28.07;28.5
59654;BME280;45496;52.010;5.418;2022-07-06T02:37:29;102530.0;;;28.53;27.89
59654;BME280;45496;52.010;5.418;2022-07-06T02:39:15;102529.0;;;28.65;27.79
59654;BME280;45496;52.010;5.418;2022-07-06T02:41:02;102524.0;;;28.79;27.77
59654;BME280;45496;52.010;5.418;2022-07-06T02:42:49;102526.0;;;28.93;27.92
59654;BME280;45496;52.010;5.418;2022-07-06T02:46:21;102530.0;;;29.18;27.71
59654;BME280;45496;52.010;5.418;2022-07-06T02:48:07;102529.0;;;28.99;28.07
59654;BME280;45496;52.010;5.418;2022-07-06T02:49:53;102526.0;;;29.05;28.04
59654;BME280;45496;52.010;5.418;2022-07-06T02:51:41;102530.0;;;29.0;28.26
59654;BME280;45496;52.010;5.418;2022-07-06T02:53:27;102529.0;;;29.35;27.77
59654;BME280;45496;52.010;5.418;2022-07-06T02:55:13;102534.99999999999;;;29.82;27.51
59654;BME280;45496;52.010;5.418;2022-07-06T02:58:45;102533.99999999999;;;30.24;27.16
59654;BME280;45496;52.010;5.418;2022-07-06T03:00:32;102534.99999999999;;;30.5;26.92
59654;BME280;45496;52.010;5.418;2022-07-06T03:02:19;102531.0;;;30.67;26.76
59654;BME280;45496;52.010;5.418;2022-07-06T03:04:06;102528.0;;;30.76;26.7
59654;BME280;45496;52.010;5.418;2022-07-06T03:05:52;102531.0;;;30.95;26.68
59654;BME280;45496;52.010;5.418;2022-07-06T03:09:26;102534.99999999999;;;30.98;26.63
59654;BME280;45496;52.010;5.418;2022-07-06T03:11:13;102536.99999999999;;;31.3;26.31
59654;BME280;45496;52.010;5.418;2022-07-06T03:12:59;102539.00000000001;;;31.09;26.63
59654;BME280;45496;52.010;5.418;2022-07-06T03:14:45;102538.00000000001;;;31.36;26.54
59654;BME280;45496;52.010;5.418;2022-07-06T03:16:31;102542.0;;;31.35;26.44
59654;BME280;45496;52.010;5.418;2022-07-06T03:18:18;102542.0;;;31.34;26.6
59654;BME280;45496;52.010;5.418;2022-07-06T03:21:53;102547.0;;;31.71;26.32
59654;BME280;45496;52.010;5.418;2022-07-06T03:23:39;102544.0;;;31.33;26.84
59654;BME280;45496;52.010;5.418;2022-07-06T03:25:25;102546.0;;;31.51;26.61
59654;BME280;45496;52.010;5.418;2022-07-06T03:27:11;102544.0;;;31.5;26.68
59654;BME280;45496;52.010;5.418;2022-07-06T03:28:57;102546.0;;;31.45;26.88
59654;BME280;45496;52.010;5.418;2022-07-06T03:30:44;102548.0;;;31.64;26.85
59654;BME280;45496;52.010;5.418;2022-07-06T03:34:18;102542.0;;;31.5;27.0
59654;BME280;45496;52.010;5.418;2022-07-06T03:36:05;102543.0;;;31.77;26.45
59654;BME280;45496;52.010;5.418;2022-07-06T03:37:52;102544.0;;;31.84;26.33
59654;BME280;45496;52.010;5.418;2022-07-06T03:39:38;102546.0;;;31.57;26.79
59654;BME280;45496;52.010;5.418;2022-07-06T03:41:25;102546.0;;;31.46;27.01
59654;BME280;45496;52.010;5.418;2022-07-06T03:44:58;102545.0;;;31.82;26.45
59654;BME280;45496;52.010;5.418;2022-07-06T03:46:44;102546.0;;;31.87;26.34
59654;BME280;45496;52.010;5.418;2022-07-06T03:48:31;102548.0;;;31.94;26.41
59654;BME280;45496;52.010;5.418;2022-07-06T03:50:18;102544.0;;;32.05;26.33
59654;BME280;45496;52.010;5.418;2022-07-06T03:52:05;102546.0;;;31.96;26.21
59654;BME280;45496;52.010;5.418;2022-07-06T03:53:51;102541.00000000001;;;31.74;26.59
59654;BME280;45496;52.010;5.418;2022-07-06T03:57:25;102547.0;;;31.75;26.52
59654;BME280;45496;52.010;5.418;2022-07-06T03:59:12;102547.0;;;31.63;26.75
59654;BME280;45496;52.010;5.418;2022-07-06T04:01:00;102545.0;;;31.59;26.9
59654;BME280;45496;52.010;5.418;2022-07-06T04:02:46;102543.0;;;31.88;26.61
59654;BME280;45496;52.010;5.418;2022-07-06T04:04:33;102541.00000000001;;;31.81;26.54
59654;BME280;45496;52.010;5.418;2022-07-06T04:06:20;102542.0;;;31.46;27.04
59654;BME280;45496;52.010;5.418;2022-07-06T04:09:54;102538.00000000001;;;32.05;26.18
59654;BME280;45496;52.010;5.418;2022-07-06T04:11:41;102541.00000000001;;;31.68;26.88
59654;BME280;45496;52.010;5.418;2022-07-06T04:13:27;102540.00000000001;;;31.94;26.69
59654;BME280;45496;52.010;5.418;2022-07-06T04:15:13;102534.99999999999;;;32.39;26.19
59654;BME280;45496;52.010;5.418;2022-07-06T04:17:51;102534.99999999999;;;32.17;26.34
59654;BME280;45496;52.010;5.418;2022-07-06T04:19:37;102536.99999999999;;;32.17;26.45
59654;BME280;45496;52.010;5.418;2022-07-06T04:21:24;102542.0;;;32.4;26.23
59654;BME280;45496;52.010;5.418;2022-07-06T04:23:10;102541.00000000001;;;32.28;26.44
59654;BME280;45496;52.010;5.418;2022-07-06T04:26:43;102540.00000000001;;;32.1;26.54
59654;BME280;45496;52.010;5.418;2022-07-06T04:28:29;102533.99999999999;;;32.17;26.25
59654;BME280;45496;52.010;5.418;2022-07-06T04:30:16;102532.0;;;32.46;26.12
59654;BME280;45496;52.010;5.418;2022-07-06T04:32:02;102539.00000000001;;;32.35;26.04
59654;BME280;45496;52.010;5.418;2022-07-06T04:33:49;102528.0;;;32.75;25.58
59654;BME280;45496;52.010;5.418;2022-07-06T04:35:35;102529.0;;;32.53;25.84
59654;BME280;45496;52.010;5.418;2022-07-06T04:39:08;102533.0;;;32.46;26.07
59654;BME280;45496;52.010;5.418;2022-07-06T04:40:56;102532.0;;;32.42;26.32
59654;BME280;45496;52.010;5.418;2022-07-06T04:42:42;102532.0;;;32.57;26.24
59654;BME280;45496;52.010;5.418;2022-07-06T04:44:29;102532.0;;;32.24;26.76
59654;BME280;45496;52.010;5.418;2022-07-06T04:46:16;102528.0;;;32.57;26.31
59654;BME280;45496;52.010;5.418;2022-07-06T04:49:50;102530.0;;;32.57;26.11
59654;BME280;45496;52.010;5.418;2022-07-06T04:51:37;102530.0;;;32.49;26.27
59654;BME280;45496;52.010;5.418;2022-07-06T04:53:23;102534.99999999999;;;32.35;26.34
59654;BME280;45496;52.010;5.418;2022-07-06T04:55:10;102531.0;;;32.29;26.44
59654;BME280;45496;52.010;5.418;2022-07-06T04:56:57;102530.0;;;33.17;25.43
59654;BME280;45496;52.010;5.418;2022-07-06T04:58:43;102533.0;;;32.81;25.81
59654;BME280;45496;52.010;5.418;2022-07-06T05:02:17;102534.99999999999;;;32.46;26.28
59654;BME280;45496;52.010;5.418;2022-07-06T05:04:03;102533.99999999999;;;32.03;27.11
59654;BME280;45496;52.010;5.418;2022-07-06T05:05:50;102533.0;;;32.14;27.18
59654;BME280;45496;52.010;5.418;2022-07-06T05:07:39;102538.00000000001;;;32.74;26.46
59654;BME280;45496;52.010;5.418;2022-07-06T05:09:25;102538.00000000001;;;32.65;26.68
59654;BME280;45496;52.010;5.418;2022-07-06T05:11:12;102538.00000000001;;;32.89;26.25
59654;BME280;45496;52.010;5.418;2022-07-06T05:14:44;102543.0;;;33.03;25.85
59654;BME280;45496;52.010;5.418;2022-07-06T05:16:30;102541.00000000001;;;33.06;25.86
59654;BME280;45496;52.010;5.418;2022-07-06T05:18:17;102541.00000000001;;;33.35;25.68
59654;BME280;45496;52.010;5.418;2022-07-06T05:20:05;102541.00000000001;;;32.85;25.94
59654;BME280;45496;52.010;5.418;2022-07-06T05:21:52;102544.0;;;33.46;25.35
59654;BME280;45496;52.010;5.418;2022-07-06T05:25:25;102542.0;;;33.42;25.45
59654;BME280;45496;52.010;5.418;2022-07-06T05:27:11;102545.0;;;33.32;25.68
59654;BME280;45496;52.010;5.418;2022-07-06T05:28:57;102547.0;;;33.39;25.39
59654;BME280;45496;52.010;5.418;2022-07-06T05:30:44;102547.0;;;33.28;25.75
59654;BME280;45496;52.010;5.418;2022-07-06T05:32:30;102547.0;;;33.57;25.42
59654;BME280;45496;52.010;5.418;2022-07-06T05:34:16;102545.0;;;33.36;25.82
59654;BME280;45496;52.010;5.418;2022-07-06T05:37:50;102546.0;;;33.9;25.14
59654;BME280;45496;52.010;5.418;2022-07-06T05:39:37;102547.0;;;33.68;25.56
59654;BME280;45496;52.010;5.418;2022-07-06T05:41:24;102544.0;;;33.46;25.76
59654;BME280;45496;52.010;5.418;2022-07-06T05:43:11;102547.0;;;33.67;25.67
59654;BME280;45496;52.010;5.418;2022-07-06T05:44:57;102546.0;;;33.35;25.8
59654;BME280;45496;52.010;5.418;2022-07-06T05:46:43;102549.0;;;34.06;24.95
59654;BME280;45496;52.010;5.418;2022-07-06T05:51:34;102555.0;;;34.03;25.14
59654;BME280;45496;52.010;5.418;2022-07-06T05:53:20;102552.0;;;34.39;24.77
59654;BME280;45496;52.010;5.418;2022-07-06T05:55:08;102556.0;;;34.31;24.8
59654;BME280;45496;52.010;5.418;2022-07-06T05:58:40;102557.0;;;34.57;24.63
59654;BME280;45496;52.010;5.418;2022-07-06T06:00:28;102553.0;;;34.9;24.43
59654;BME280;45496;52.010;5.418;2022-07-06T06:02:15;102555.0;;;34.67;24.46
59654;BME280;45496;52.010;5.418;2022-07-06T06:04:02;102558.99999999999;;;34.6;24.81
59654;BME280;45496;52.010;5.418;2022-07-06T06:05:49;102552.0;;;34.85;24.75
59654;BME280;45496;52.010;5.418;2022-07-06T06:29:05;102558.99999999999;;;33.94;25.58
59654;BME280;45496;52.010;5.418;2022-07-06T06:30:51;102561.99999999999;;;34.86;24.47
59654;BME280;45496;52.010;5.418;2022-07-06T06:34:25;102561.99999999999;;;34.82;24.26
59654;BME280;45496;52.010;5.418;2022-07-06T06:36:11;102568.0;;;33.24;26.24
59654;BME280;45496;52.010;5.418;2022-07-06T06:37:57;102568.0;;;34.17;25.08
59654;BME280;45496;52.010;5.418;2022-07-06T06:39:43;102568.0;;;34.22;25.38
59654;BME280;45496;52.010;5.418;2022-07-06T06:41:30;102566.00000000001;;;34.61;24.83
59654;BME280;45496;52.010;5.418;2022-07-06T06:43:16;102558.99999999999;;;35.64;23.9
59654;BME280;45496;52.010;5.418;2022-07-06T06:46:50;102566.00000000001;;;35.37;23.8
59654;BME280;45496;52.010;5.418;2022-07-06T06:48:37;102568.0;;;35.37;23.68
59654;BME280;45496;52.010;5.418;2022-07-06T06:50:24;102567.0;;;33.71;25.86
59654;BME280;45496;52.010;5.418;2022-07-06T06:52:10;102568.0;;;34.94;24.6
59654;BME280;45496;52.010;5.418;2022-07-06T06:53:56;102568.0;;;35.51;23.82
59654;BME280;45496;52.010;5.418;2022-07-06T06:55:43;102571.0;;;35.46;23.57
59654;BME280;45496;52.010;5.418;2022-07-06T06:59:16;102575.0;;;34.78;23.87
59654;BME280;45496;52.010;5.418;2022-07-06T07:01:04;102575.0;;;34.76;23.78
59654;BME280;45496;52.010;5.418;2022-07-06T07:02:51;102578.0;;;35.68;22.9
59654;BME280;45496;52.010;5.418;2022-07-06T07:04:37;102575.0;;;34.32;24.62
59654;BME280;45496;52.010;5.418;2022-07-06T07:06:24;102576.0;;;35.76;22.82
59654;BME280;45496;52.010;5.418;2022-07-06T07:09:56;102576.0;;;35.78;22.9
59654;BME280;45496;52.010;5.418;2022-07-06T07:11:43;102578.0;;;34.67;24.2
59654;BME280;45496;52.010;5.418;2022-07-06T07:13:29;102574.0;;;34.96;23.66
59654;BME280;45496;52.010;5.418;2022-07-06T07:15:16;102576.0;;;35.39;23.2
59654;BME280;45496;52.010;5.418;2022-07-06T07:17:03;102576.0;;;35.01;23.64
59654;BME280;45496;52.010;5.418;2022-07-06T07:18:50;102577.0;;;35.51;22.55
59654;BME280;45496;52.010;5.418;2022-07-06T07:22:24;102577.0;;;35.47;22.39
59654;BME280;45496;52.010;5.418;2022-07-06T07:24:10;102573.0;;;36.35;21.62
59654;BME280;45496;52.010;5.418;2022-07-06T07:25:56;102576.0;;;36.19;21.41
59654;BME280;45496;52.010;5.418;2022-07-06T07:27:43;102574.0;;;36.17;21.87
59654;BME280;45496;52.010;5.418;2022-07-06T07:29:29;102578.0;;;36.31;21.95
59654;BME280;45496;52.010;5.418;2022-07-06T07:31:15;102582.0;;;35.35;22.27
59654;BME280;45496;52.010;5.418;2022-07-06T07:34:48;102580.0;;;35.68;22.18
59654;BME280;45496;52.010;5.418;2022-07-06T07:36:34;102582.0;;;35.67;22.4
59654;BME280;45496;52.010;5.418;2022-07-06T07:38:20;102580.0;;;35.33;21.47
59654;BME280;45496;52.010;5.418;2022-07-06T07:40:07;102579.0;;;36.14;21.2
59654;BME280;45496;52.010;5.418;2022-07-06T07:41:53;102579.0;;;36.14;21.44
59654;BME280;45496;52.010;5.418;2022-07-06T07:45:26;102571.0;;;36.96;20.89
59654;BME280;45496;52.010;5.418;2022-07-06T07:47:12;102578.0;;;36.74;21.13
59654;BME280;45496;52.010;5.418;2022-07-06T07:48:58;102577.0;;;36.14;21.14
59654;BME280;45496;52.010;5.418;2022-07-06T07:50:45;102580.0;;;35.83;21.32
59654;BME280;45496;52.010;5.418;2022-07-06T07:52:31;102579.0;;;36.81;20.73
59654;BME280;45496;52.010;5.418;2022-07-06T07:54:18;102581.0;;;37.04;20.54
59654;BME280;45496;52.010;5.418;2022-07-06T07:57:52;102582.0;;;37.14;20.72
59654;BME280;45496;52.010;5.418;2022-07-06T07:59:38;102577.0;;;37.17;20.55
59654;BME280;45496;52.010;5.418;2022-07-06T08:01:25;102581.0;;;36.53;20.85
59654;BME280;45496;52.010;5.418;2022-07-06T08:03:12;102578.0;;;35.99;21.48
59654;BME280;45496;52.010;5.418;2022-07-06T08:04:59;102572.0;;;37.0;20.81
59654;BME280;45496;52.010;5.418;2022-07-06T08:08:32;102574.0;;;36.92;21.08
59654;BME280;45496;52.010;5.418;2022-07-06T08:10:18;102577.0;;;36.5;21.25
59654;BME280;45496;52.010;5.418;2022-07-06T08:12:06;102573.0;;;36.53;21.55
59654;BME280;45496;52.010;5.418;2022-07-06T08:13:52;102571.0;;;36.49;21.01
59654;BME280;45496;52.010;5.418;2022-07-06T08:15:40;102569.0;;;36.85;20.82
59654;BME280;45496;52.010;5.418;2022-07-06T08:17:27;102568.0;;;36.31;20.41
59654;BME280;45496;52.010;5.418;2022-07-06T08:21:03;102568.0;;;36.47;19.66
59654;BME280;45496;52.010;5.418;2022-07-06T08:22:49;102569.0;;;37.25;19.93
59654;BME280;45496;52.010;5.418;2022-07-06T08:24:35;102568.0;;;37.07;19.81
59654;BME280;45496;52.010;5.418;2022-07-06T08:26:23;102571.0;;;34.47;21.87
59654;BME280;45496;52.010;5.418;2022-07-06T08:28:10;102575.0;;;35.46;21.41
59654;BME280;45496;52.010;5.418;2022-07-06T08:29:56;102568.0;;;36.46;19.93
59654;BME280;45496;52.010;5.418;2022-07-06T08:33:29;102567.0;;;37.06;19.43
59654;BME280;45496;52.010;5.418;2022-07-06T08:35:16;102567.0;;;37.67;19.05
59654;BME280;45496;52.010;5.418;2022-07-06T08:37:03;102566.00000000001;;;37.67;18.68
59654;BME280;45496;52.010;5.418;2022-07-06T08:38:49;102567.0;;;36.87;18.81
59654;BME280;45496;52.010;5.418;2022-07-06T08:40:38;102569.0;;;36.31;19.37
59654;BME280;45496;52.010;5.418;2022-07-06T08:42:30;102558.99999999999;;;36.46;19.37
59654;BME280;45496;52.010;5.418;2022-07-06T08:46:07;102553.0;;;37.42;18.18
59654;BME280;45496;52.010;5.418;2022-07-06T08:47:54;102553.0;;;37.28;18.39
59654;BME280;45496;52.010;5.418;2022-07-06T08:49:44;102553.0;;;36.87;18.32
59654;BME280;45496;52.010;5.418;2022-07-06T08:51:31;102553.0;;;36.69;19.46
59654;BME280;45496;52.010;5.418;2022-07-06T08:53:17;102549.0;;;37.9;18.2
59654;BME280;45496;52.010;5.418;2022-07-06T08:55:05;102548.0;;;37.67;17.86
59654;BME280;45496;52.010;5.418;2022-07-06T08:58:43;102554.0;;;37.67;18.07
59654;BME280;45496;52.010;5.418;2022-07-06T09:00:29;102556.0;;;35.32;20.34
59654;BME280;45496;52.010;5.418;2022-07-06T09:02:19;102555.0;;;35.42;20.54
59654;BME280;45496;52.010;5.418;2022-07-06T09:04:11;102552.0;;;35.56;20.38
59654;BME280;45496;52.010;5.418;2022-07-06T09:06:01;102553.0;;;34.86;20.14
59654;BME280;45496;52.010;5.418;2022-07-06T09:07:49;102557.0;;;34.22;20.93
59654;BME280;45496;52.010;5.418;2022-07-06T09:09:37;102553.0;;;36.67;18.91
59654;BME280;45496;52.010;5.418;2022-07-06T09:13:12;102552.0;;;37.11;18.34
59654;BME280;45496;52.010;5.418;2022-07-06T09:14:58;102554.0;;;36.43;18.56
59654;BME280;45496;52.010;5.418;2022-07-06T09:16:45;102549.0;;;37.24;18.21
59654;BME280;45496;52.010;5.418;2022-07-06T09:18:37;102549.0;;;36.99;18.13
59654;BME280;45496;52.010;5.418;2022-07-06T09:20:25;102558.99999999999;;;37.21;18.45
59654;BME280;45496;52.010;5.418;2022-07-06T09:22:25;102550.0;;;37.46;17.96
59654;BME280;45496;52.010;5.418;2022-07-06T09:26:01;102554.0;;;35.79;19.54
59654;BME280;45496;52.010;5.418;2022-07-06T09:27:50;102552.0;;;35.83;19.22
59654;BME280;45496;52.010;5.418;2022-07-06T09:29:45;102558.0;;;36.03;20.27
59654;BME280;45496;52.010;5.418;2022-07-06T09:31:32;102559.99999999999;;;36.78;19.02
59654;BME280;45496;52.010;5.418;2022-07-06T09:33:18;102553.0;;;37.71;18.28
59654;BME280;45496;52.010;5.418;2022-07-06T09:35:04;102558.0;;;35.21;20.49
59654;BME280;45496;52.010;5.418;2022-07-06T09:36:51;102558.0;;;34.96;19.27
59654;BME280;45496;52.010;5.418;2022-07-06T09:40:25;102552.0;;;33.83;21.1
59654;BME280;45496;52.010;5.418;2022-07-06T09:42:11;102550.0;;;36.64;18.63
59654;BME280;45496;52.010;5.418;2022-07-06T09:43:57;102550.0;;;36.96;19.0
59654;BME280;45496;52.010;5.418;2022-07-06T09:45:45;102547.0;;;37.56;18.07
59654;BME280;45496;52.010;5.418;2022-07-06T09:47:32;102554.0;;;38.19;17.45
59654;BME280;45496;52.010;5.418;2022-07-06T09:51:07;102561.99999999999;;;36.89;18.0
59654;BME280;45496;52.010;5.418;2022-07-06T09:52:54;102563.00000000001;;;36.82;17.7
59654;BME280;45496;52.010;5.418;2022-07-06T09:54:41;102567.0;;;37.69;17.18
59654;BME280;45496;52.010;5.418;2022-07-06T09:56:36;102564.00000000001;;;38.83;16.79
59654;BME280;45496;52.010;5.418;2022-07-06T09:58:22;102564.00000000001;;;37.5;16.95
59654;BME280;45496;52.010;5.418;2022-07-06T10:00:10;102566.00000000001;;;37.81;17.57
59654;BME280;45496;52.010;5.418;2022-07-06T10:01:58;102569.0;;;38.01;17.28
59654;BME280;45496;52.010;5.418;2022-07-06T10:05:36;102567.0;;;37.92;17.02
59654;BME280;45496;52.010;5.418;2022-07-06T10:07:23;102568.0;;;39.06;16.38
59654;BME280;45496;52.010;5.418;2022-07-06T10:09:13;102570.0;;;38.93;17.0
59654;BME280;45496;52.010;5.418;2022-07-06T10:11:01;102559.99999999999;;;38.26;16.5
59654;BME280;45496;52.010;5.418;2022-07-06T10:12:50;102564.00000000001;;;38.67;16.06
59654;BME280;45496;52.010;5.418;2022-07-06T10:14:37;102561.99999999999;;;37.99;16.36
59654;BME280;45496;52.010;5.418;2022-07-06T10:18:13;102567.0;;;37.69;18.16
59654;BME280;45496;52.010;5.418;2022-07-06T10:20:01;102569.0;;;38.61;16.37
59654;BME280;45496;52.010;5.418;2022-07-06T10:21:48;102569.0;;;37.43;17.14
59654;BME280;45496;52.010;5.418;2022-07-06T10:23:36;102565.00000000001;;;37.94;16.86
59654;BME280;45496;52.010;5.418;2022-07-06T10:25:23;102566.00000000001;;;38.57;16.59
59654;BME280;45496;52.010;5.418;2022-07-06T10:27:11;102559.99999999999;;;38.72;16.7
59654;BME280;45496;52.010;5.418;2022-07-06T10:30:49;102556.0;;;38.32;17.14
59654;BME280;45496;52.010;5.418;2022-07-06T10:32:36;102557.0;;;39.03;16.95
59654;BME280;45496;52.010;5.418;2022-07-06T10:34:25;102553.0;;;38.07;17.16
59654;BME280;45496;52.010;5.418;2022-07-06T10:36:13;102551.0;;;36.47;18.41
59654;BME280;45496;52.010;5.418;2022-07-06T10:38:04;102552.0;;;35.14;20.81
59654;BME280;45496;52.010;5.418;2022-07-06T10:42:57;102541.00000000001;;;37.6;18.02
59654;BME280;45496;52.010;5.418;2022-07-06T10:44:45;102547.0;;;36.18;19.3
59654;BME280;45496;52.010;5.418;2022-07-06T10:46:34;102543.0;;;37.61;18.16
59654;BME280;45496;52.010;5.418;2022-07-06T10:48:22;102545.0;;;36.15;18.75
59654;BME280;45496;52.010;5.418;2022-07-06T10:50:10;102550.0;;;34.89;20.3
59654;BME280;45496;52.010;5.418;2022-07-06T10:53:44;102542.0;;;37.56;17.46
59654;BME280;45496;52.010;5.418;2022-07-06T10:55:32;102544.0;;;37.53;17.59
59654;BME280;45496;52.010;5.418;2022-07-06T10:57:20;102550.0;;;36.24;18.66
59654;BME280;45496;52.010;5.418;2022-07-06T10:59:09;102549.0;;;35.5;19.46
59654;BME280;45496;52.010;5.418;2022-07-06T11:00:56;102543.0;;;37.33;17.73
59654;BME280;45496;52.010;5.418;2022-07-06T11:02:43;102543.0;;;36.49;18.59
59654;BME280;45496;52.010;5.418;2022-07-06T11:06:19;102542.0;;;36.01;19.61
59654;BME280;45496;52.010;5.418;2022-07-06T11:08:08;102544.0;;;35.79;18.8
59654;BME280;45496;52.010;5.418;2022-07-06T11:09:58;102545.0;;;35.93;19.84